Time;durP1;ratioP1;P1;durP2;ratioP2;P2;SDS_P1;SDS_P2;PMS_P1;PMS_P2;Temp;Humidity;BMP_temperature;BMP_pressure;BME280_temperature;BME280_humidity;BME280_pressure;Samples;Min_cycle;Max_cycle;Signal;HPM_P1;HPM_P2
2023/05/01 00:01:12;;;;;;;;;;;;;;;12.22;nan;100501.19;5030744;28;19921;-84
2023/05/01 00:03:37;;;;;;;;;;;;;;;12.22;nan;100501.19;5021754;28;19921;-83
2023/05/01 00:06:04;;;;;;;;;;;;;;;12.22;nan;100503.84;5019767;28;19925;-81
2023/05/01 00:08:32;;;;;;;;;;;;;;;12.20;nan;100505.81;5016524;28;20040;-84
2023/05/01 00:11:01;;;;;;;;;;;;;;;12.20;nan;100497.03;5032467;28;19921;-84
2023/05/01 00:13:30;;;;;;;;;;;;;;;12.17;nan;100503.50;5022437;28;20425;-84
2023/05/01 00:15:56;;;;;;;;;;;;;;;12.16;nan;100499.22;5025490;28;19932;-84
2023/05/01 00:18:21;;;;;;;;;;;;;;;12.16;nan;100490.44;5016353;28;19922;-84
2023/05/01 00:20:47;;;;;;;;;;;;;;;12.17;nan;100487.59;5033909;28;19927;-84
2023/05/01 00:23:12;;;;;;;;;;;;;;;12.11;nan;100489.09;5029863;28;20262;-84
2023/05/01 00:25:40;;;;;;;;;;;;;;;12.17;nan;100489.44;5032528;28;19928;-84
2023/05/01 00:28:05;;;;;;;;;;;;;;;12.15;nan;100486.09;5035796;28;20372;-84
2023/05/01 00:30:31;;;;;;;;;;;;;;;12.16;nan;100477.19;5018749;28;19921;-84
2023/05/01 00:32:57;;;;;;;;;;;;;;;12.14;nan;100476.50;5030266;28;19928;-84
2023/05/01 00:35:22;;;;;;;;;;;;;;;12.08;nan;100476.16;5032355;28;19925;-83
2023/05/01 00:37:47;;;;;;;;;;;;;;;12.09;nan;100475.16;5033454;28;19917;-84
2023/05/01 00:40:12;;;;;;;;;;;;;;;12.11;nan;100473.19;5021563;28;19921;-83
2023/05/01 00:42:38;;;;;;;;;;;;;;;12.15;nan;100467.53;5022417;28;19922;-84
2023/05/01 00:45:05;;;;;;;;;;;;;;;12.15;nan;100460.41;5035192;28;19980;-84
2023/05/01 00:47:30;;;;;;;;;;;;;;;12.11;nan;100459.09;5012413;28;19980;-84
2023/05/01 00:49:55;;;;;;;;;;;;;;;12.18;nan;100465.41;5000392;28;19917;-85
2023/05/01 00:52:23;;;;;;;;;;;;;;;12.16;nan;100463.91;5036487;28;20694;-84
2023/05/01 00:54:51;;;;;;;;;;;;;;;12.18;nan;100457.47;5017756;28;19917;-84
2023/05/01 00:57:17;;;;;;;;;;;;;;;12.17;nan;100458.44;5021644;28;19979;-84
2023/05/01 00:59:42;;;;;;;;;;;;;;;12.23;nan;100459.63;5026081;28;20454;-83
2023/05/01 01:02:07;;;;;;;;;;;;;;;12.24;nan;100450.66;5032644;28;19917;-84
2023/05/01 01:04:33;;;;;;;;;;;;;;;12.22;nan;100450.81;5026234;28;19921;-84
2023/05/01 01:07:20;;;;;;;;;;;;;;;12.18;nan;100446.00;5041144;28;19928;-84
2023/05/01 01:10:04;;;;;;;;;;;;;;;12.15;nan;100435.75;5021010;28;20073;-83
2023/05/01 01:12:47;;;;;;;;;;;;;;;12.20;nan;100446.69;5021309;28;19917;-83
2023/05/01 01:15:17;;;;;;;;;;;;;;;12.13;nan;100437.72;5022354;28;21819;-83
2023/05/01 01:18:08;;;;;;;;;;;;;;;12.14;nan;100437.56;5032203;28;20393;-83
2023/05/01 01:20:41;;;;;;;;;;;;;;;12.11;nan;100427.31;5026492;28;19917;-84
2023/05/01 01:23:32;;;;;;;;;;;;;;;12.17;nan;100428.47;5035328;28;20582;-84
2023/05/01 01:26:03;;;;;;;;;;;;;;;12.19;nan;100419.34;4999507;28;19922;-84
2023/05/01 01:28:39;;;;;;;;;;;;;;;12.19;nan;100432.59;5007469;28;19993;-84
2023/05/01 01:31:07;;;;;;;;;;;;;;;12.18;nan;100417.69;5007299;28;19922;-83
2023/05/01 01:33:53;;;;;;;;;;;;;;;12.14;nan;100423.50;5028786;28;19940;-84
2023/05/01 01:36:20;;;;;;;;;;;;;;;12.13;nan;100427.13;5018484;28;20008;-84
2023/05/01 01:38:48;;;;;;;;;;;;;;;12.10;nan;100425.63;5019611;28;19917;-84
2023/05/01 01:41:20;;;;;;;;;;;;;;;12.07;nan;100423.31;5019606;28;20289;-83
2023/05/01 01:43:51;;;;;;;;;;;;;;;12.07;nan;100426.78;5019046;28;20050;-84
2023/05/01 01:46:16;;;;;;;;;;;;;;;12.02;nan;100417.69;5013441;28;19921;-83
2023/05/01 01:48:44;;;;;;;;;;;;;;;11.99;nan;100416.19;5017234;28;19921;-84
2023/05/01 01:51:15;;;;;;;;;;;;;;;12.00;nan;100417.84;5034531;28;19964;-85
2023/05/01 01:53:41;;;;;;;;;;;;;;;12.02;nan;100423.81;5019232;28;19924;-85
2023/05/01 01:56:07;;;;;;;;;;;;;;;12.00;nan;100419.66;5026402;28;19932;-83
2023/05/01 01:58:34;;;;;;;;;;;;;;;12.00;nan;100401.94;5032625;28;19917;-84
2023/05/01 02:01:00;;;;;;;;;;;;;;;11.99;nan;100412.69;5004456;28;19925;-83
2023/05/01 02:03:25;;;;;;;;;;;;;;;11.96;nan;100413.84;5025217;28;19944;-83
2023/05/01 02:05:53;;;;;;;;;;;;;;;11.94;nan;100407.91;5018502;28;19953;-83
2023/05/01 02:08:18;;;;;;;;;;;;;;;12.05;nan;100399.63;5021831;28;19924;-84
2023/05/01 02:10:44;;;;;;;;;;;;;;;12.02;nan;100410.56;5004512;28;19917;-83
2023/05/01 02:13:11;;;;;;;;;;;;;;;11.95;nan;100400.78;5025219;28;19925;-84
2023/05/01 02:15:36;;;;;;;;;;;;;;;11.96;nan;100397.13;5008027;28;20409;-84
2023/05/01 02:18:03;;;;;;;;;;;;;;;11.97;nan;100404.09;5000772;28;19928;-83
2023/05/01 02:20:29;;;;;;;;;;;;;;;11.95;nan;100395.47;5018493;28;19917;-83
2023/05/01 02:22:54;;;;;;;;;;;;;;;11.97;nan;100402.25;5025776;28;19967;-83
2023/05/01 02:25:20;;;;;;;;;;;;;;;11.96;nan;100400.59;5003058;28;19921;-84
2023/05/01 02:27:54;;;;;;;;;;;;;;;11.99;nan;100405.59;5034254;28;19933;-84
2023/05/01 02:30:20;;;;;;;;;;;;;;;11.91;nan;100400.25;5001221;28;19917;-84
2023/05/01 02:32:47;;;;;;;;;;;;;;;11.92;nan;100401.09;5006662;28;19920;-84
2023/05/01 02:35:12;;;;;;;;;;;;;;;11.95;nan;100398.13;5030454;28;19921;-84
2023/05/01 02:37:38;;;;;;;;;;;;;;;12.03;nan;100400.78;5033801;28;20411;-83
2023/05/01 02:40:03;;;;;;;;;;;;;;;12.05;nan;100391.66;5028080;28;19956;-84
2023/05/01 02:42:29;;;;;;;;;;;;;;;12.08;nan;100387.84;5037724;28;19924;-83
2023/05/01 02:45:07;;;;;;;;;;;;;;;12.19;nan;100389.38;5030739;28;19929;-84
2023/05/01 02:47:35;;;;;;;;;;;;;;;12.19;nan;100394.66;5008657;28;20370;-84
2023/05/01 02:50:01;;;;;;;;;;;;;;;12.17;nan;100386.03;5015175;28;19940;-83
2023/05/01 02:52:28;;;;;;;;;;;;;;;12.17;nan;100376.25;5019944;28;19925;-84
2023/05/01 02:54:54;;;;;;;;;;;;;;;12.14;nan;100373.94;5033860;28;19947;-84
2023/05/01 02:57:19;;;;;;;;;;;;;;;12.07;nan;100372.94;5036590;28;19932;-84
2023/05/01 02:59:44;;;;;;;;;;;;;;;12.12;nan;100383.88;5019904;28;19921;-84
2023/05/01 03:02:10;;;;;;;;;;;;;;;12.14;nan;100375.78;5033676;28;19917;-85
2023/05/01 03:04:35;;;;;;;;;;;;;;;12.18;nan;100371.78;5035713;28;19928;-84
2023/05/01 03:07:00;;;;;;;;;;;;;;;12.14;nan;100371.31;5024408;28;19924;-84
2023/05/01 03:09:25;;;;;;;;;;;;;;;12.12;nan;100373.28;5019115;28;19921;-84
2023/05/01 03:11:51;;;;;;;;;;;;;;;12.08;nan;100379.91;5034662;28;20004;-84
2023/05/01 03:14:16;;;;;;;;;;;;;;;12.06;nan;100376.59;5034833;28;19917;-85
2023/05/01 03:16:41;;;;;;;;;;;;;;;12.01;nan;100363.00;5028837;28;19960;-83
2023/05/01 03:19:06;;;;;;;;;;;;;;;12.05;nan;100373.09;5020280;28;19940;-84
2023/05/01 03:21:32;;;;;;;;;;;;;;;12.00;nan;100377.25;5019655;28;19924;-84
2023/05/01 03:23:57;;;;;;;;;;;;;;;11.97;nan;100373.13;5029537;28;19956;-84
2023/05/01 03:26:23;;;;;;;;;;;;;;;11.92;nan;100367.50;5033305;28;19975;-84
2023/05/01 03:28:48;;;;;;;;;;;;;;;11.84;nan;100375.38;5026875;28;19917;-83
2023/05/01 03:31:13;;;;;;;;;;;;;;;11.82;nan;100374.72;5031843;28;19921;-83
2023/05/01 03:33:39;;;;;;;;;;;;;;;11.81;nan;100370.41;5012050;28;19922;-84
2023/05/01 03:36:04;;;;;;;;;;;;;;;11.89;nan;100383.69;5030499;28;19928;-83
2023/05/01 03:38:30;;;;;;;;;;;;;;;11.90;nan;100366.81;5009108;28;19930;-83
2023/05/01 03:40:56;;;;;;;;;;;;;;;11.85;nan;100369.94;5036015;28;19979;-84
2023/05/01 03:43:22;;;;;;;;;;;;;;;11.84;nan;100367.44;5033080;28;19921;-84
2023/05/01 03:45:47;;;;;;;;;;;;;;;11.81;nan;100375.72;5019200;28;19997;-84
2023/05/01 03:48:13;;;;;;;;;;;;;;;11.78;nan;100374.22;5011935;28;19956;-84
2023/05/01 03:50:38;;;;;;;;;;;;;;;11.78;nan;100365.47;5038047;28;19917;-83
2023/05/01 03:53:03;;;;;;;;;;;;;;;11.67;nan;100363.94;5012060;28;19925;-84
2023/05/01 03:55:28;;;;;;;;;;;;;;;11.66;nan;100363.09;5015554;28;19926;-83
2023/05/01 03:57:53;;;;;;;;;;;;;;;11.59;nan;100367.41;5029267;28;19957;-84
2023/05/01 04:00:19;;;;;;;;;;;;;;;11.54;nan;100364.41;5002622;28;19925;-84
2023/05/01 04:02:44;;;;;;;;;;;;;;;11.52;nan;100360.28;5012574;28;20297;-84
2023/05/01 04:05:09;;;;;;;;;;;;;;;11.50;nan;100355.13;5037501;28;20060;-83
2023/05/01 04:07:35;;;;;;;;;;;;;;;11.41;nan;100351.63;5035920;28;20374;-84
2023/05/01 04:10:00;;;;;;;;;;;;;;;11.48;nan;100359.75;5033095;28;19960;-83
2023/05/01 04:12:25;;;;;;;;;;;;;;;11.49;nan;100350.84;5032424;28;20625;-84
2023/05/01 04:14:50;;;;;;;;;;;;;;;11.45;nan;100349.50;5027529;28;19921;-83
2023/05/01 04:17:16;;;;;;;;;;;;;;;11.41;nan;100354.25;5028674;28;19931;-84
2023/05/01 04:19:41;;;;;;;;;;;;;;;11.39;nan;100352.78;5018027;28;19905;-83
2023/05/01 04:22:06;;;;;;;;;;;;;;;11.38;nan;100351.13;5001463;28;19925;-83
2023/05/01 04:24:31;;;;;;;;;;;;;;;11.35;nan;100348.81;5018477;28;19921;-84
2023/05/01 04:26:57;;;;;;;;;;;;;;;11.33;nan;100348.97;5012331;28;19923;-83
2023/05/01 04:29:22;;;;;;;;;;;;;;;11.37;nan;100347.66;5037284;28;19917;-83
2023/05/01 04:31:47;;;;;;;;;;;;;;;11.39;nan;100348.31;5035221;28;19936;-83
2023/05/01 04:34:13;;;;;;;;;;;;;;;11.36;nan;100350.47;5018282;28;20293;-84
2023/05/01 04:36:38;;;;;;;;;;;;;;;11.33;nan;100350.78;5019250;28;19932;-83
2023/05/01 04:39:04;;;;;;;;;;;;;;;11.33;nan;100353.44;5033754;28;20032;-84
2023/05/01 04:41:29;;;;;;;;;;;;;;;11.41;nan;100362.22;5022941;28;20536;-84
2023/05/01 04:43:54;;;;;;;;;;;;;;;11.48;nan;100362.41;5037293;28;19975;-83
2023/05/01 04:46:19;;;;;;;;;;;;;;;11.54;nan;100364.41;5035048;28;19945;-83
2023/05/01 04:48:45;;;;;;;;;;;;;;;11.57;nan;100369.38;5025249;28;20444;-83
2023/05/01 04:51:10;;;;;;;;;;;;;;;11.56;nan;100361.59;5032957;28;19917;-83
2023/05/01 04:53:35;;;;;;;;;;;;;;;11.63;nan;100359.94;5023845;28;19932;-84
2023/05/01 04:56:01;;;;;;;;;;;;;;;11.68;nan;100363.78;5025488;28;19972;-83
2023/05/01 04:58:26;;;;;;;;;;;;;;;11.73;nan;100365.94;5022122;28;19960;-84
2023/05/01 05:00:51;;;;;;;;;;;;;;;11.72;nan;100366.91;5020961;28;19922;-83
2023/05/01 05:03:17;;;;;;;;;;;;;;;11.79;nan;100372.41;5022578;28;19921;-84
2023/05/01 05:05:43;;;;;;;;;;;;;;;11.85;nan;100369.09;5025431;28;19924;-84
2023/05/01 05:08:09;;;;;;;;;;;;;;;11.90;nan;100367.63;5018058;28;20545;-84
2023/05/01 05:10:34;;;;;;;;;;;;;;;11.90;nan;100364.16;5032569;28;19976;-84
2023/05/01 05:12:59;;;;;;;;;;;;;;;11.96;nan;100371.44;5037289;28;19984;-84
2023/05/01 05:15:25;;;;;;;;;;;;;;;12.02;nan;100364.69;5037585;28;20392;-84
2023/05/01 05:17:50;;;;;;;;;;;;;;;12.05;nan;100374.94;5032169;28;19921;-84
2023/05/01 05:20:15;;;;;;;;;;;;;;;12.15;nan;100369.47;5021430;28;20424;-84
2023/05/01 05:22:40;;;;;;;;;;;;;;;12.19;nan;100368.97;5030916;28;20016;-84
2023/05/01 05:25:05;;;;;;;;;;;;;;;12.22;nan;100373.13;5027125;28;20004;-84
2023/05/01 05:27:35;;;;;;;;;;;;;;;12.27;nan;100379.56;5019497;28;19917;-84
2023/05/01 05:30:00;;;;;;;;;;;;;;;12.31;nan;100369.47;5038495;28;19921;-84
2023/05/01 05:32:26;;;;;;;;;;;;;;;12.39;nan;100368.63;5030791;28;19921;-84
2023/05/01 05:34:51;;;;;;;;;;;;;;;12.46;nan;100375.75;5014396;28;20045;-84
2023/05/01 05:37:16;;;;;;;;;;;;;;;12.53;nan;100363.47;5036811;28;19992;-85
2023/05/01 05:39:41;;;;;;;;;;;;;;;12.64;nan;100372.91;5021067;28;19928;-83
2023/05/01 05:42:07;;;;;;;;;;;;;;;12.70;nan;100364.28;5008957;28;19924;-83
2023/05/01 05:44:34;;;;;;;;;;;;;;;12.75;nan;100356.63;5032549;28;19924;-84
2023/05/01 05:46:59;;;;;;;;;;;;;;;12.87;nan;100359.75;5040498;28;19962;-84
2023/05/01 05:49:25;;;;;;;;;;;;;;;13.00;nan;100363.69;5033813;28;19948;-85
2023/05/01 05:51:50;;;;;;;;;;;;;;;13.13;nan;100358.63;5022665;28;19921;-85
2023/05/01 05:54:15;;;;;;;;;;;;;;;13.33;nan;100367.06;5037825;28;19956;-84
2023/05/01 05:56:41;;;;;;;;;;;;;;;13.58;nan;100363.25;5039220;28;19932;-84
2023/05/01 05:59:07;;;;;;;;;;;;;;;13.84;nan;100363.94;5039185;28;19948;-84
2023/05/01 06:01:32;;;;;;;;;;;;;;;14.13;nan;100353.38;5031147;28;20630;-84
2023/05/01 06:03:57;;;;;;;;;;;;;;;14.38;nan;100361.16;5022863;28;19929;-84
2023/05/01 06:06:23;;;;;;;;;;;;;;;14.57;nan;100358.00;5039400;28;19917;-84
2023/05/01 06:08:48;;;;;;;;;;;;;;;14.90;nan;100364.81;5040167;28;19928;-84
2023/05/01 06:11:14;;;;;;;;;;;;;;;15.11;nan;100361.41;5038879;28;19924;-84
2023/05/01 06:13:39;;;;;;;;;;;;;;;15.46;nan;100365.94;5039870;28;20404;-84
2023/05/01 06:16:06;;;;;;;;;;;;;;;15.68;nan;100365.97;5027330;28;19991;-84
2023/05/01 06:18:31;;;;;;;;;;;;;;;15.84;nan;100362.25;5021362;28;19917;-84
2023/05/01 06:20:56;;;;;;;;;;;;;;;16.18;nan;100358.06;5035956;28;19987;-84
2023/05/01 06:23:22;;;;;;;;;;;;;;;16.38;nan;100355.56;5017565;28;19925;-84
2023/05/01 06:25:47;;;;;;;;;;;;;;;16.45;nan;100356.44;5038265;28;19971;-85
2023/05/01 06:28:13;;;;;;;;;;;;;;;16.53;nan;100354.41;5013261;28;19921;-85
2023/05/01 06:30:39;;;;;;;;;;;;;;;16.91;nan;100361.25;5028923;28;19928;-84
2023/05/01 06:33:04;;;;;;;;;;;;;;;16.97;nan;100352.44;5018732;28;19929;-84
2023/05/01 06:35:30;;;;;;;;;;;;;;;16.93;nan;100345.88;5009431;28;20378;-84
2023/05/01 06:37:55;;;;;;;;;;;;;;;16.89;nan;100352.63;5001388;28;19921;-84
2023/05/01 06:40:21;;;;;;;;;;;;;;;16.79;nan;100349.50;5017945;28;19930;-84
2023/05/01 06:42:46;;;;;;;;;;;;;;;16.68;nan;100350.81;5011261;28;19925;-85
2023/05/01 06:45:11;;;;;;;;;;;;;;;16.84;nan;100349.72;5021647;28;19918;-84
2023/05/01 06:47:36;;;;;;;;;;;;;;;16.79;nan;100350.31;5028793;28;19929;-85
2023/05/01 06:50:03;;;;;;;;;;;;;;;16.68;nan;100348.97;4998251;28;19921;-84
2023/05/01 06:52:28;;;;;;;;;;;;;;;16.71;nan;100345.94;5019294;28;20377;-84
2023/05/01 06:54:53;;;;;;;;;;;;;;;16.79;nan;100349.50;5011078;28;19928;-84
2023/05/01 06:57:19;;;;;;;;;;;;;;;16.90;nan;100351.59;5019308;28;19925;-84
2023/05/01 06:59:44;;;;;;;;;;;;;;;17.04;nan;100357.81;4999544;28;19968;-84
2023/05/01 07:02:10;;;;;;;;;;;;;;;16.94;nan;100348.31;5021788;28;19917;-84
2023/05/01 07:04:35;;;;;;;;;;;;;;;16.92;nan;100350.41;5037107;28;19921;-82
2023/05/01 07:07:01;;;;;;;;;;;;;;;16.92;nan;100350.41;5007140;28;19921;-83
2023/05/01 07:09:26;;;;;;;;;;;;;;;16.90;nan;100347.09;5033032;28;19921;-85
2023/05/01 07:11:52;;;;;;;;;;;;;;;16.89;nan;100349.94;5007001;28;19921;-83
2023/05/01 07:14:17;;;;;;;;;;;;;;;16.68;nan;100348.97;5023030;28;19909;-83
2023/05/01 07:16:42;;;;;;;;;;;;;;;16.83;nan;100356.91;5019477;28;19926;-85
2023/05/01 07:19:07;;;;;;;;;;;;;;;16.97;nan;100352.44;5006826;28;19925;-84
2023/05/01 07:21:33;;;;;;;;;;;;;;;16.85;nan;100354.03;5025567;28;20408;-84
2023/05/01 07:23:58;;;;;;;;;;;;;;;16.97;nan;100353.28;4994247;28;19921;-84
2023/05/01 07:26:26;;;;;;;;;;;;;;;17.20;nan;100344.94;5010351;28;19980;-85
2023/05/01 07:28:51;;;;;;;;;;;;;;;17.31;nan;100354.25;4989714;28;20001;-85
2023/05/01 07:31:16;;;;;;;;;;;;;;;17.29;nan;100344.78;5001176;28;19936;-84
2023/05/01 07:33:41;;;;;;;;;;;;;;;17.32;nan;100347.06;4996512;28;19964;-82
2023/05/01 07:36:07;;;;;;;;;;;;;;;17.31;nan;100348.09;5016695;28;20441;-83
2023/05/01 07:38:33;;;;;;;;;;;;;;;17.15;nan;100350.06;5019400;28;19984;-84
2023/05/01 07:40:58;;;;;;;;;;;;;;;17.06;nan;100347.75;5011829;28;19918;-84
2023/05/01 07:43:23;;;;;;;;;;;;;;;16.92;nan;100350.41;5017202;28;20469;-84
2023/05/01 07:45:56;;;;;;;;;;;;;;;16.75;nan;100355.16;4992427;28;19948;-84
2023/05/01 07:48:22;;;;;;;;;;;;;;;16.72;nan;100358.25;5018209;28;19971;-84
2023/05/01 07:50:47;;;;;;;;;;;;;;;16.56;nan;100354.06;5018679;28;19905;-84
2023/05/01 07:53:12;;;;;;;;;;;;;;;16.54;nan;100358.75;5019652;28;19925;-84
2023/05/01 07:55:37;;;;;;;;;;;;;;;16.55;nan;100356.91;4992167;28;19977;-84
2023/05/01 07:58:02;;;;;;;;;;;;;;;16.46;nan;100361.56;5000248;28;19957;-84
2023/05/01 08:00:28;;;;;;;;;;;;;;;16.47;nan;100355.22;5011110;28;19925;-84
2023/05/01 08:02:53;;;;;;;;;;;;;;;16.38;nan;100348.38;5001037;28;19921;-84
2023/05/01 08:05:18;;;;;;;;;;;;;;;16.32;nan;100357.97;5027454;28;20310;-84
2023/05/01 08:07:43;;;;;;;;;;;;;;;16.32;nan;100352.63;5012570;28;19928;-84
2023/05/01 08:10:09;;;;;;;;;;;;;;;16.33;nan;100354.28;5036374;28;20277;-84
2023/05/01 08:12:34;;;;;;;;;;;;;;;16.47;nan;100357.88;5017937;28;19921;-84
2023/05/01 08:14:59;;;;;;;;;;;;;;;16.58;nan;100359.19;5037431;28;19924;-84
2023/05/01 08:17:25;;;;;;;;;;;;;;;16.71;nan;100353.94;5018878;28;20375;-84
2023/05/01 08:19:52;;;;;;;;;;;;;;;16.69;nan;100352.47;4994693;28;19917;-84
2023/05/01 08:22:19;;;;;;;;;;;;;;;16.68;nan;100348.97;5035771;28;20384;-84
2023/05/01 08:24:45;;;;;;;;;;;;;;;16.83;nan;100356.06;5021981;28;20008;-85
2023/05/01 08:27:10;;;;;;;;;;;;;;;16.84;nan;100360.41;5016730;28;19956;-84
2023/05/01 08:29:35;;;;;;;;;;;;;;;16.95;nan;100359.84;5019506;28;19921;-85
2023/05/01 08:32:00;;;;;;;;;;;;;;;17.11;nan;100354.19;5035582;28;20444;-84
2023/05/01 08:34:25;;;;;;;;;;;;;;;17.21;nan;100359.16;5011210;28;19929;-85
2023/05/01 08:36:51;;;;;;;;;;;;;;;17.26;nan;100359.38;5036399;28;19925;-85
2023/05/01 08:39:16;;;;;;;;;;;;;;;17.29;nan;100356.28;5027608;28;19922;-84
2023/05/01 08:41:45;;;;;;;;;;;;;;;17.39;nan;100361.25;5012332;28;19976;-86
2023/05/01 08:44:12;;;;;;;;;;;;;;;17.50;nan;100357.19;5017555;28;19988;-87
2023/05/01 08:46:43;;;;;;;;;;;;;;;17.66;nan;100353.31;5005662;28;19924;-86
2023/05/01 08:49:10;;;;;;;;;;;;;;;17.83;nan;100352.78;5013328;28;20362;-87
2023/05/01 08:51:36;;;;;;;;;;;;;;;18.03;nan;100357.31;5019533;28;19933;-87
2023/05/01 08:54:02;;;;;;;;;;;;;;;18.11;nan;100350.94;5038898;28;19917;-87
2023/05/01 08:56:32;;;;;;;;;;;;;;;18.29;nan;100355.69;5020838;28;19933;-87
2023/05/01 08:58:59;;;;;;;;;;;;;;;18.51;nan;100353.59;5038734;28;19922;-87
2023/05/01 09:01:26;;;;;;;;;;;;;;;18.65;nan;100360.56;5021771;28;19961;-86
2023/05/01 09:03:52;;;;;;;;;;;;;;;18.88;nan;100360.97;5018593;28;19921;-86
2023/05/01 09:06:18;;;;;;;;;;;;;;;18.88;nan;100360.97;5042783;28;19921;-81
2023/05/01 09:08:43;;;;;;;;;;;;;;;19.03;nan;100350.00;5017314;28;20011;-82
2023/05/01 09:11:10;;;;;;;;;;;;;;;19.16;nan;100356.34;5027618;28;19921;-80
2023/05/01 09:13:35;;;;;;;;;;;;;;;19.19;nan;100353.25;5013776;28;19925;-82
2023/05/01 09:16:00;;;;;;;;;;;;;;;19.19;nan;100358.59;5030451;28;20436;-82
2023/05/01 09:18:26;;;;;;;;;;;;;;;19.14;nan;100356.56;5023698;28;20037;-81
2023/05/01 09:20:52;;;;;;;;;;;;;;;19.09;nan;100359.03;5028524;28;19949;-80
2023/05/01 09:23:19;;;;;;;;;;;;;;;19.23;nan;100355.25;5022939;28;20325;-82
2023/05/01 09:25:44;;;;;;;;;;;;;;;19.26;nan;100352.19;5000848;28;19921;-83
2023/05/01 09:28:09;;;;;;;;;;;;;;;19.43;nan;100351.69;5013616;28;20067;-82
2023/05/01 09:30:36;;;;;;;;;;;;;;;19.48;nan;100351.88;5006610;28;19929;-86
2023/05/01 09:35:56;;;;;;;;;;;;;;;19.14;nan;100350.34;5762272;23;19940;-87
2023/05/01 09:38:22;;;;;;;;;;;;;;;19.18;nan;100349.72;5019663;28;19933;-86
2023/05/01 09:43:27;;;;;;;;;;;;;;;19.09;nan;100353.66;4921557;26;20098;-86
2023/05/01 09:46:04;;;;;;;;;;;;;;;19.29;nan;100358.97;5025401;28;19929;-86
2023/05/01 09:48:29;;;;;;;;;;;;;;;19.77;nan;100355.84;5024482;28;19929;-85
2023/05/01 09:50:55;;;;;;;;;;;;;;;19.58;nan;100354.91;5017209;28;19921;-86
2023/05/01 09:53:32;;;;;;;;;;;;;;;20.02;nan;100355.88;5025299;28;19921;-85
2023/05/01 09:56:01;;;;;;;;;;;;;;;20.68;nan;100349.09;5033467;28;20296;-84
2023/05/01 09:58:27;;;;;;;;;;;;;;;21.79;nan;100351.69;5045446;28;19932;-85
2023/05/01 10:00:52;;;;;;;;;;;;;;;22.05;nan;100350.47;5038126;28;19906;-87
2023/05/01 10:03:18;;;;;;;;;;;;;;;22.26;nan;100349.09;5022854;28;19984;-84
2023/05/01 10:05:43;;;;;;;;;;;;;;;22.27;nan;100348.06;5029032;28;20012;-84
2023/05/01 10:08:13;;;;;;;;;;;;;;;23.43;nan;100349.97;5018548;28;19925;-82
2023/05/01 10:10:39;;;;;;;;;;;;;;;24.69;nan;100355.06;5037575;28;20364;-81
2023/05/01 10:13:16;;;;;;;;;;;;;;;26.13;nan;100345.81;5036844;28;19921;-83
2023/05/01 10:15:43;;;;;;;;;;;;;;;26.68;nan;100348.09;5028663;28;19914;-85
2023/05/01 10:18:10;;;;;;;;;;;;;;;27.29;nan;100349.44;5103587;23;19988;-86
2023/05/01 10:20:36;;;;;;;;;;;;;;;27.10;nan;100351.81;5033145;28;19929;-86
2023/05/01 10:23:02;;;;;;;;;;;;;;;26.38;nan;100356.03;5373465;23;20332;-83
2023/05/01 10:25:27;;;;;;;;;;;;;;;25.89;nan;100340.75;5029106;28;19932;-86
2023/05/01 10:27:54;;;;;;;;;;;;;;;24.86;nan;100348.78;5040919;28;19928;-85
2023/05/01 10:30:26;;;;;;;;;;;;;;;24.65;nan;100351.22;5031864;28;19925;-85
2023/05/01 10:32:51;;;;;;;;;;;;;;;24.60;nan;100348.47;5035150;28;19936;-85
2023/05/01 10:35:25;;;;;;;;;;;;;;;25.56;nan;100342.59;5033630;28;20563;-87
2023/05/01 10:37:57;;;;;;;;;;;;;;;25.58;nan;100340.44;5033635;28;19921;-86
2023/05/01 10:40:37;;;;;;;;;;;;;;;26.62;nan;100342.91;5044694;28;20016;-87
2023/05/01 10:43:14;;;;;;;;;;;;;;;27.69;nan;100340.56;5037010;28;20364;-84
2023/05/01 10:45:39;;;;;;;;;;;;;;;28.72;nan;100338.63;5038326;28;19975;-90
2023/05/01 10:48:06;;;;;;;;;;;;;;;29.37;nan;100340.53;5050149;28;21246;-86
2023/05/01 10:50:32;;;;;;;;;;;;;;;29.67;nan;100341.44;5036594;28;19960;-83
2023/05/01 10:53:15;;;;;;;;;;;;;;;29.69;nan;100337.31;5037603;28;19984;-86
2023/05/01 10:55:43;;;;;;;;;;;;;;;30.25;nan;100338.78;5043756;28;19952;-85
2023/05/01 10:58:10;;;;;;;;;;;;;;;30.51;nan;100331.16;5040587;28;19917;-88
2023/05/01 11:00:35;;;;;;;;;;;;;;;30.25;nan;100328.69;5038782;28;20262;-87
2023/05/01 11:03:23;;;;;;;;;;;;;;;29.97;nan;100327.56;5043684;28;19913;-90
2023/05/01 11:06:03;;;;;;;;;;;;;;;29.63;nan;100328.34;5038909;28;19925;-83
2023/05/01 11:08:29;;;;;;;;;;;;;;;29.56;nan;100327.06;5038280;28;20051;-83
2023/05/01 11:10:54;;;;;;;;;;;;;;;30.66;nan;100321.97;5035838;28;19921;-84
2023/05/01 11:13:39;;;;;;;;;;;;;;;30.99;nan;100324.88;5037377;28;19928;-83
2023/05/01 11:16:24;;;;;;;;;;;;;;;30.78;nan;100324.31;5027161;28;19928;-87
2023/05/01 11:18:49;;;;;;;;;;;;;;;30.26;nan;100324.06;5032801;28;19925;-86
2023/05/01 11:21:15;;;;;;;;;;;;;;;30.61;nan;100314.66;5038659;28;19925;-84
2023/05/01 11:23:45;;;;;;;;;;;;;;;30.56;nan;100320.19;5035237;28;20288;-85
2023/05/01 11:26:11;;;;;;;;;;;;;;;29.90;nan;100316.16;5036849;28;19932;-85
2023/05/01 11:28:37;;;;;;;;;;;;;;;29.32;nan;100314.13;5029250;28;19918;-85
2023/05/01 11:31:02;;;;;;;;;;;;;;;29.51;nan;100314.28;5023082;28;19928;-84
2023/05/01 11:33:28;;;;;;;;;;;;;;;28.91;nan;100313.50;5035092;28;19948;-85
2023/05/01 11:35:58;;;;;;;;;;;;;;;29.59;nan;100304.69;5034314;28;19948;-84
2023/05/01 11:38:23;;;;;;;;;;;;;;;29.74;nan;100304.56;5031948;28;19921;-84
2023/05/01 11:40:54;;;;;;;;;;;;;;;29.49;nan;100310.22;5029735;28;19978;-86
2023/05/01 11:43:19;;;;;;;;;;;;;;;28.42;nan;100309.56;5043767;28;19924;-91
2023/05/01 11:45:50;;;;;;;;;;;;;;;28.87;nan;100298.84;5028358;28;19929;-88
2023/05/01 11:48:15;;;;;;;;;;;;;;;29.36;nan;100306.19;5045876;28;19928;-87
2023/05/01 11:50:41;;;;;;;;;;;;;;;29.36;nan;100307.00;5016990;28;20363;-88
2023/05/01 11:53:19;;;;;;;;;;;;;;;29.11;nan;100307.97;5032571;28;19948;-88
2023/05/01 11:55:45;;;;;;;;;;;;;;;29.04;nan;100303.91;5034868;28;19972;-87
2023/05/01 11:58:10;;;;;;;;;;;;;;;28.63;nan;100299.47;5045769;28;20906;-84
2023/05/01 12:00:36;;;;;;;;;;;;;;;27.87;nan;100297.69;5036678;28;19921;-89
2023/05/01 12:03:08;;;;;;;;;;;;;;;27.05;nan;100297.50;5032987;28;20296;-82
2023/05/01 12:05:36;;;;;;;;;;;;;;;26.09;nan;100290.50;5032833;28;20000;-82
2023/05/01 12:08:07;;;;;;;;;;;;;;;26.02;nan;100290.72;5030490;28;20024;-81
2023/05/01 12:10:33;;;;;;;;;;;;;;;26.37;nan;100281.19;5031512;28;19925;-82
2023/05/01 12:12:58;;;;;;;;;;;;;;;26.73;nan;100289.53;5036421;28;19924;-82
2023/05/01 12:15:24;;;;;;;;;;;;;;;27.01;nan;100291.81;5028638;28;19921;-82
2023/05/01 12:17:50;;;;;;;;;;;;;;;26.13;nan;100288.91;5034224;28;19917;-82
2023/05/01 12:20:17;;;;;;;;;;;;;;;25.11;nan;100280.66;5050323;28;19964;-82
2023/05/01 12:22:49;;;;;;;;;;;;;;;24.42;nan;100284.66;5035158;28;19921;-82
2023/05/01 12:25:15;;;;;;;;;;;;;;;24.65;nan;100290.94;5028565;28;19952;-83
2023/05/01 12:27:44;;;;;;;;;;;;;;;24.58;nan;100285.72;5024463;28;19944;-83
2023/05/01 12:30:09;;;;;;;;;;;;;;;24.55;nan;100295.13;5020984;28;19922;-82
2023/05/01 12:32:34;;;;;;;;;;;;;;;24.38;nan;100289.75;5034198;28;19941;-82
2023/05/01 12:35:00;;;;;;;;;;;;;;;24.32;nan;100289.91;5011888;28;20538;-82
2023/05/01 12:37:30;;;;;;;;;;;;;;;24.19;nan;100280.25;5028095;28;20008;-82
2023/05/01 12:39:56;;;;;;;;;;;;;;;24.65;nan;100283.63;5038796;28;19931;-83
2023/05/01 12:42:21;;;;;;;;;;;;;;;25.09;nan;100278.19;5026998;28;20082;-82
2023/05/01 12:44:46;;;;;;;;;;;;;;;25.38;nan;100283.38;5021963;28;19995;-82
2023/05/01 12:47:12;;;;;;;;;;;;;;;24.86;nan;100187.34;5030489;28;19977;-83
2023/05/01 12:49:37;;;;;;;;;;;;;;;24.38;nan;100283.50;5020376;28;19917;-82
2023/05/01 12:52:04;;;;;;;;;;;;;;;23.78;nan;100285.03;5032755;28;20333;-82
2023/05/01 12:54:31;;;;;;;;;;;;;;;23.61;nan;100276.91;5031624;28;20392;-83
2023/05/01 12:57:13;;;;;;;;;;;;;;;23.39;nan;100278.69;5031769;28;19918;-82
2023/05/01 12:59:40;;;;;;;;;;;;;;;23.68;nan;100282.16;5020525;28;19921;-81
2023/05/01 13:02:07;;;;;;;;;;;;;;;23.88;nan;100276.28;5039485;28;19929;-82